Afton, Tennessee
Current Conditions -  °F | °C
As of 4:53 PM on Friday 24 Oct 2014 (Local Time) from KTRI Reporting Station
Scattered Clouds Scattered Clouds  
Wind Chill: 65°   Ceiling: Unl
Heat Index: 65°   Visibility: 10mi
Dew Point: 38°   Wind: 0mph
Humidity: 37%   Direction: NA
Pressure: 30.04"   Gusts: NA
Location:  36.19°N, 82.74°W
Report Text: KTRI 242053Z 00000KT 10SM SCT170 18/03 A3004 RMK AO2 SLP160 T01830033 56010
Loading
Personal Weather Stations






























Interactive Weather Map New forecast layout! Learn more

10-Day Weather Forecast

Advertisements
Track Severe Weather on mobile